Janet — 9HSL8 — position and weather

sailwx.info

Track history (hours):
 
Tides and Currents Weather Stations Pressure Air Temp Water Temp Dewpoint Dewpoint Depression Visibility Wind Speed Wind Dir Waves Ship Positions

Janet

Last reported at 2016-May-29 13:23 UTC. Time now 2016-May-30 06:57 UTC.
Position N 54°37' W 005°53'.

Length 90 m; draft 3.8 m.

Type: Cargo ship. MMSI: 256371000.

Date/timePositionNaut miles runAvg speedWind from/ knotsBaromVisibWave heightAir tempDewpointWater temp
2016-May-29 13:23N 54°37' W 005°53'0 0.0
2016-May-28 01:11N 54°37' W 005°53'2 0.1
2016-May-27 00:33N 54°39' W 005°52'1110.9
2016-May-26 23:33N 54°43' W 005°34'8 8.5
2016-May-26 22:33N 54°37' W 005°23'1010.1
2016-May-26 21:33N 54°27' W 005°20'1110.7
2016-May-26 20:33N 54°16' W 005°23'1110.9
2016-May-26 19:33N 54°08' W 005°35'1110.7
2016-May-26 18:33N 54°02' W 005°51'1010.1
2016-May-26 17:33N 54°02' W 006°08'0 0.0
2016-May-26 16:24N 54°02' W 006°08'0 0.0
2016-May-26 15:24N 54°02' W 006°08'0 0.0
2016-May-26 14:27N 54°02' W 006°08'0 0.0
2016-May-26 13:18N 54°02' W 006°08'0 0.0
2016-May-26 12:30N 54°02' W 006°08'0 0.0
2016-May-26 11:30N 54°02' W 006°08'0 0.0
2016-May-26 10:30N 54°02' W 006°08'0 0.0
2016-May-26 09:30N 54°02' W 006°08'0 0.0
2016-May-26 08:30N 54°02' W 006°08'0 0.0
2016-May-26 07:30N 54°02' W 006°08'0 0.0
2016-May-26 06:33N 54°02' W 006°08'0 0.0
2016-May-26 05:30N 54°02' W 006°08'0 0.0
2016-May-26 04:30N 54°02' W 006°08'0 0.0
2016-May-26 03:33N 54°02' W 006°08'0 0.0
2016-May-26 02:27N 54°02' W 006°08'0 0.0
2016-May-26 01:33N 54°02' W 006°08'0 0.0
2016-May-26 00:30N 54°02' W 006°08'0 0.0
2016-May-25 23:33N 54°02' W 006°08'0 0.0
2016-May-25 22:33N 54°02' W 006°08'0 0.0
2016-May-25 21:33N 54°02' W 006°08'0 0.0
2016-May-25 20:33N 54°02' W 006°08'0 0.0
2016-May-25 19:33N 54°02' W 006°08'0 0.0
2016-May-25 18:30N 54°02' W 006°08'0 0.0
2016-May-25 17:24N 54°02' W 006°08'0 0.0
2016-May-25 16:24N 54°02' W 006°08'0 0.0
2016-May-25 15:24N 54°02' W 006°08'0 0.0
2016-May-25 14:21N 54°02' W 006°08'0 0.0
2016-May-25 13:18N 54°02' W 006°08'0 0.0
2016-May-25 12:18N 54°02' W 006°08'0 0.0
2016-May-25 11:15N 54°02' W 006°08'0 0.0
2016-May-25 10:33N 54°02' W 006°08'0 0.0
2016-May-25 09:33N 54°02' W 006°08'0 0.0
2016-May-25 06:09N 54°02' W 006°08'0 0.0
2016-May-25 03:27N 54°02' W 006°08'0 0.0
2016-May-25 02:09N 54°02' W 006°08'0 0.0
2016-May-25 01:09N 54°02' W 006°08'0 0.0
2016-May-25 00:27N 54°02' W 006°08'0 0.0
2016-May-24 23:18N 54°02' W 006°08'0 0.1
2016-May-24 22:33N 54°02' W 006°08'6 1.9
2016-May-24 19:17N 53°57' W 006°02'0 0.0
2016-May-24 18:32N 53°57' W 006°02'0 0.0
2016-May-24 17:32N 53°57' W 006°02'0 0.0
2016-May-24 16:20N 53°57' W 006°02'0 0.0
2016-May-24 14:32N 53°57' W 006°02'0 0.0
2016-May-24 09:29N 53°57' W 006°02'0 0.0
2016-May-24 07:20N 53°57' W 006°02'0 0.0
2016-May-24 06:32N 53°57' W 006°02'0 0.0
2016-May-24 05:32N 53°57' W 006°02'0 0.0
2016-May-24 04:32N 53°57' W 006°02'0 0.0
2016-May-24 03:32N 53°57' W 006°02'0 0.0
2016-May-24 02:17N 53°57' W 006°02'0 0.0
2016-May-24 01:20N 53°57' W 006°02'0 0.0
2016-May-23 23:32N 53°57' W 006°02'0 0.0
2016-May-23 18:32N 53°57' W 006°02'0 0.0
2016-May-23 17:08N 53°57' W 006°02'0 0.0
2016-May-23 16:29N 53°57' W 006°02'0 0.0
2016-May-23 15:32N 53°57' W 006°02'1 0.5
2016-May-23 13:32N 53°56' W 006°01'  
2016-May-19 19:33N 39°02' W 009°51'10 9.6
2016-May-19 18:33N 38°52' W 009°52'9 9.2
2016-May-19 17:33N 38°43' W 009°52'8 8.2
2016-May-19 16:33N 38°36' W 009°45'9 8.5
2016-May-19 15:33N 38°31' W 009°37'9 9.2
2016-May-19 14:33N 38°26' W 009°27'9 9.1
2016-May-19 13:33N 38°22' W 009°16'  
Track history (hours):
 
Tides and Currents Weather Stations Pressure Air Temp Water Temp Dewpoint Dewpoint Depression Visibility Wind Speed Wind Dir Waves Ship Positions

Janet

Last reported at 2016-May-29 13:23 UTC. Time now 2016-May-30 06:57 UTC.
Position N 54°37' W 005°53'.

Length 90 m; draft 3.8 m.

Type: Cargo ship. MMSI: 256371000.

Date/timePositionNaut miles runAvg speedWind from/ knotsBaromVisibWave heightAir tempDewpointWater temp
2016-May-29 13:23N 54°37' W 005°53'0 0.0
2016-May-28 01:11N 54°37' W 005°53'2 0.1
2016-May-27 00:33N 54°39' W 005°52'1110.9
2016-May-26 23:33N 54°43' W 005°34'8 8.5
2016-May-26 22:33N 54°37' W 005°23'1010.1
2016-May-26 21:33N 54°27' W 005°20'1110.7
2016-May-26 20:33N 54°16' W 005°23'1110.9
2016-May-26 19:33N 54°08' W 005°35'1110.7
2016-May-26 18:33N 54°02' W 005°51'1010.1
2016-May-26 17:33N 54°02' W 006°08'0 0.0
2016-May-26 16:24N 54°02' W 006°08'0 0.0
2016-May-26 15:24N 54°02' W 006°08'0 0.0
2016-May-26 14:27N 54°02' W 006°08'0 0.0
2016-May-26 13:18N 54°02' W 006°08'0 0.0
2016-May-26 12:30N 54°02' W 006°08'0 0.0
2016-May-26 11:30N 54°02' W 006°08'0 0.0
2016-May-26 10:30N 54°02' W 006°08'0 0.0
2016-May-26 09:30N 54°02' W 006°08'0 0.0
2016-May-26 08:30N 54°02' W 006°08'0 0.0
2016-May-26 07:30N 54°02' W 006°08'0 0.0
2016-May-26 06:33N 54°02' W 006°08'0 0.0
2016-May-26 05:30N 54°02' W 006°08'0 0.0
2016-May-26 04:30N 54°02' W 006°08'0 0.0
2016-May-26 03:33N 54°02' W 006°08'0 0.0
2016-May-26 02:27N 54°02' W 006°08'0 0.0
2016-May-26 01:33N 54°02' W 006°08'0 0.0
2016-May-26 00:30N 54°02' W 006°08'0 0.0
2016-May-25 23:33N 54°02' W 006°08'0 0.0
2016-May-25 22:33N 54°02' W 006°08'0 0.0
2016-May-25 21:33N 54°02' W 006°08'0 0.0
2016-May-25 20:33N 54°02' W 006°08'0 0.0
2016-May-25 19:33N 54°02' W 006°08'0 0.0
2016-May-25 18:30N 54°02' W 006°08'0 0.0
2016-May-25 17:24N 54°02' W 006°08'0 0.0
2016-May-25 16:24N 54°02' W 006°08'0 0.0
2016-May-25 15:24N 54°02' W 006°08'0 0.0
2016-May-25 14:21N 54°02' W 006°08'0 0.0
2016-May-25 13:18N 54°02' W 006°08'0 0.0
2016-May-25 12:18N 54°02' W 006°08'0 0.0
2016-May-25 11:15N 54°02' W 006°08'0 0.0
2016-May-25 10:33N 54°02' W 006°08'0 0.0
2016-May-25 09:33N 54°02' W 006°08'0 0.0
2016-May-25 06:09N 54°02' W 006°08'0 0.0
2016-May-25 03:27N 54°02' W 006°08'0 0.0
2016-May-25 02:09N 54°02' W 006°08'0 0.0
2016-May-25 01:09N 54°02' W 006°08'0 0.0
2016-May-25 00:27N 54°02' W 006°08'0 0.0
2016-May-24 23:18N 54°02' W 006°08'0 0.1
2016-May-24 22:33N 54°02' W 006°08'6 1.9
2016-May-24 19:17N 53°57' W 006°02'0 0.0
2016-May-24 18:32N 53°57' W 006°02'0 0.0
2016-May-24 17:32N 53°57' W 006°02'0 0.0
2016-May-24 16:20N 53°57' W 006°02'0 0.0
2016-May-24 14:32N 53°57' W 006°02'0 0.0
2016-May-24 09:29N 53°57' W 006°02'0 0.0
2016-May-24 07:20N 53°57' W 006°02'0 0.0
2016-May-24 06:32N 53°57' W 006°02'0 0.0
2016-May-24 05:32N 53°57' W 006°02'0 0.0
2016-May-24 04:32N 53°57' W 006°02'0 0.0
2016-May-24 03:32N 53°57' W 006°02'0 0.0
2016-May-24 02:17N 53°57' W 006°02'0 0.0
2016-May-24 01:20N 53°57' W 006°02'0 0.0
2016-May-23 23:32N 53°57' W 006°02'0 0.0
2016-May-23 18:32N 53°57' W 006°02'0 0.0
2016-May-23 17:08N 53°57' W 006°02'0 0.0
2016-May-23 16:29N 53°57' W 006°02'0 0.0
2016-May-23 15:32N 53°57' W 006°02'1 0.5
2016-May-23 13:32N 53°56' W 006°01'  
2016-May-19 19:33N 39°02' W 009°51'10 9.6
2016-May-19 18:33N 38°52' W 009°52'9 9.2
2016-May-19 17:33N 38°43' W 009°52'8 8.2
2016-May-19 16:33N 38°36' W 009°45'9 8.5
2016-May-19 15:33N 38°31' W 009°37'9 9.2
2016-May-19 14:33N 38°26' W 009°27'9 9.1
2016-May-19 13:33N 38°22' W 009°16'  

Dump ship's entire track history